Time;durP1;ratioP1;P1;durP2;ratioP2;P2;SDS_P1;SDS_P2;PMS_P1;PMS_P2;Temp;Humidity;BMP_temperature;BMP_pressure;BME280_temperature;BME280_humidity;BME280_pressure;Samples;Min_cycle;Max_cycle;Signal;HPM_P1;HPM_P2
2021/01/13 00:00:17;;;;;;;;;;;10.00;72.70;;;;;;5100426;28;19928;-77
2021/01/13 00:02:45;;;;;;;;;;;10.00;72.60;;;;;;5116167;28;19924;-75
2021/01/13 00:05:15;;;;;;;;;;;10.00;73.80;;;;;;5115514;28;19924;-78
2021/01/13 00:07:42;;;;;;;;;;;10.00;73.50;;;;;;5116267;28;20018;-78
2021/01/13 00:10:09;;;;;;;;;;;10.00;74.20;;;;;;5115842;28;19924;-79
2021/01/13 00:12:38;;;;;;;;;;;10.00;73.90;;;;;;5115237;28;19970;-78
2021/01/13 00:15:08;;;;;;;;;;;10.00;72.70;;;;;;5114828;28;19962;-78
2021/01/13 00:17:34;;;;;;;;;;;10.00;73.50;;;;;;5114730;28;20022;-73
2021/01/13 00:20:01;;;;;;;;;;;10.00;73.30;;;;;;5114943;28;19924;-75
2021/01/13 00:22:27;;;;;;;;;;;10.00;73.20;;;;;;5096862;28;19980;-75
2021/01/13 00:24:53;;;;;;;;;;;10.00;73.00;;;;;;5114397;28;19967;-75
2021/01/13 00:27:21;;;;;;;;;;;10.00;73.30;;;;;;5115192;28;19977;-75
2021/01/13 00:29:49;;;;;;;;;;;10.00;73.50;;;;;;5097517;28;20023;-73
2021/01/13 00:32:15;;;;;;;;;;;9.90;73.80;;;;;;5114652;28;19976;-74
2021/01/13 00:34:41;;;;;;;;;;;9.90;73.30;;;;;;5114400;28;19924;-74
2021/01/13 00:37:09;;;;;;;;;;;9.90;73.60;;;;;;5114490;28;19930;-73
2021/01/13 00:39:36;;;;;;;;;;;9.90;73.10;;;;;;5114708;28;19951;-75
2021/01/13 00:42:02;;;;;;;;;;;9.90;73.10;;;;;;5114884;28;19977;-73
2021/01/13 00:44:29;;;;;;;;;;;9.90;73.10;;;;;;5113862;28;19962;-72
2021/01/13 00:46:55;;;;;;;;;;;9.80;73.70;;;;;;5113125;28;20332;-72
2021/01/13 00:49:22;;;;;;;;;;;9.70;74.00;;;;;;5097503;28;19924;-74
2021/01/13 00:51:48;;;;;;;;;;;9.70;74.60;;;;;;5115049;28;19966;-78
2021/01/13 00:54:14;;;;;;;;;;;9.60;74.90;;;;;;5115917;28;19951;-78
2021/01/13 00:56:42;;;;;;;;;;;9.60;75.30;;;;;;5115391;28;19924;-78
2021/01/13 00:59:10;;;;;;;;;;;9.60;75.60;;;;;;5114956;28;20310;-78
2021/01/13 01:01:37;;;;;;;;;;;9.50;76.30;;;;;;5115677;28;19930;-76
2021/01/13 01:04:07;;;;;;;;;;;9.60;75.80;;;;;;5116368;28;19924;-79
2021/01/13 01:06:33;;;;;;;;;;;9.60;75.40;;;;;;5116530;28;20409;-79
2021/01/13 01:08:59;;;;;;;;;;;9.70;75.50;;;;;;5116436;28;20022;-78
2021/01/13 01:11:36;;;;;;;;;;;9.70;75.30;;;;;;5115828;28;19937;-77
2021/01/13 01:14:06;;;;;;;;;;;9.70;75.20;;;;;;5116696;28;20006;-79
2021/01/13 01:16:34;;;;;;;;;;;9.80;75.70;;;;;;5099194;28;19937;-78
2021/01/13 01:19:00;;;;;;;;;;;9.80;75.60;;;;;;5115955;28;19931;-78
2021/01/13 01:21:27;;;;;;;;;;;9.70;75.00;;;;;;5115194;28;19928;-79
2021/01/13 01:23:54;;;;;;;;;;;9.80;75.00;;;;;;5115172;28;19924;-78
2021/01/13 01:26:20;;;;;;;;;;;9.80;75.50;;;;;;5114477;28;20019;-79
2021/01/13 01:28:47;;;;;;;;;;;9.80;75.60;;;;;;5114504;28;20284;-79
2021/01/13 01:31:13;;;;;;;;;;;9.80;75.20;;;;;;5114615;28;19923;-78
2021/01/13 01:33:39;;;;;;;;;;;9.80;75.90;;;;;;5114813;28;19924;-77
2021/01/13 01:36:06;;;;;;;;;;;9.80;76.60;;;;;;5097146;28;19924;-77
2021/01/13 01:38:32;;;;;;;;;;;9.70;77.40;;;;;;5114949;28;19924;-78
2021/01/13 01:41:06;;;;;;;;;;;9.60;78.40;;;;;;5114972;28;19924;-78
2021/01/13 01:43:35;;;;;;;;;;;9.60;79.10;;;;;;5097165;28;19924;-78
2021/01/13 01:46:03;;;;;;;;;;;9.60;79.30;;;;;;5114375;28;19931;-78
2021/01/13 01:48:35;;;;;;;;;;;9.50;79.60;;;;;;5113860;28;19931;-72
2021/01/13 01:51:02;;;;;;;;;;;9.40;79.80;;;;;;5113133;28;20002;-77
2021/01/13 01:53:28;;;;;;;;;;;9.40;80.20;;;;;;5112925;28;19928;-72
2021/01/13 01:56:08;;;;;;;;;;;9.30;80.10;;;;;;5113067;28;19966;-73
2021/01/13 01:58:34;;;;;;;;;;;9.20;80.00;;;;;;5114696;28;20027;-75
2021/01/13 02:01:03;;;;;;;;;;;9.20;80.60;;;;;;5099487;28;20456;-75
2021/01/13 02:03:33;;;;;;;;;;;9.20;80.80;;;;;;5116304;28;19977;-72
2021/01/13 02:06:03;;;;;;;;;;;9.20;81.20;;;;;;5116249;28;19931;-72
2021/01/13 02:08:35;;;;;;;;;;;9.20;81.90;;;;;;5116197;28;19982;-76
2021/01/13 02:11:01;;;;;;;;;;;9.20;81.70;;;;;;5116313;28;20009;-75
2021/01/13 02:13:27;;;;;;;;;;;9.30;81.60;;;;;;5116723;28;19962;-73
2021/01/13 02:15:54;;;;;;;;;;;9.40;81.40;;;;;;5116501;28;19930;-74
2021/01/13 02:18:21;;;;;;;;;;;9.40;81.60;;;;;;5118733;28;20444;-78
2021/01/13 02:21:00;;;;;;;;;;;9.40;81.70;;;;;;5119447;28;19973;-78
2021/01/13 02:23:30;;;;;;;;;;;9.40;81.80;;;;;;5119843;28;19963;-79
2021/01/13 02:25:56;;;;;;;;;;;9.30;81.70;;;;;;5119761;28;20015;-78
2021/01/13 02:28:25;;;;;;;;;;;9.30;81.90;;;;;;5118728;28;19928;-74
2021/01/13 02:31:05;;;;;;;;;;;9.30;81.90;;;;;;5117304;28;19974;-73
2021/01/13 02:33:40;;;;;;;;;;;9.30;81.70;;;;;;5117819;28;19966;-77
2021/01/13 02:36:20;;;;;;;;;;;9.30;81.50;;;;;;5118639;28;20446;-78
2021/01/13 02:38:48;;;;;;;;;;;9.40;81.60;;;;;;5119158;28;19955;-79
2021/01/13 02:41:16;;;;;;;;;;;9.30;81.70;;;;;;5119253;28;19924;-79
2021/01/13 02:44:03;;;;;;;;;;;9.20;81.90;;;;;;5119320;28;19985;-77
2021/01/13 02:46:48;;;;;;;;;;;9.20;81.90;;;;;;5118160;28;20324;-73
2021/01/13 02:49:19;;;;;;;;;;;9.10;82.10;;;;;;5117454;28;20003;-72
2021/01/13 02:51:47;;;;;;;;;;;9.10;82.50;;;;;;5118671;28;20015;-79
2021/01/13 02:54:33;;;;;;;;;;;9.10;82.10;;;;;;5120925;28;20307;-78
2021/01/13 02:57:14;;;;;;;;;;;9.10;82.10;;;;;;5122894;28;19956;-79
2021/01/13 02:59:43;;;;;;;;;;;9.00;82.50;;;;;;5125153;28;19931;-78
2021/01/13 03:02:10;;;;;;;;;;;9.00;82.80;;;;;;5122024;28;20026;-77
2021/01/13 03:04:37;;;;;;;;;;;9.00;83.40;;;;;;5121778;28;20300;-79
2021/01/13 03:07:13;;;;;;;;;;;9.00;82.60;;;;;;5122005;28;20015;-80
2021/01/13 03:09:41;;;;;;;;;;;9.00;82.80;;;;;;5120460;28;19932;-79
2021/01/13 03:12:16;;;;;;;;;;;9.00;83.10;;;;;;5120773;28;20022;-78
2021/01/13 03:14:43;;;;;;;;;;;9.00;83.30;;;;;;5120008;28;20019;-76
2021/01/13 03:17:22;;;;;;;;;;;9.00;83.60;;;;;;5119058;28;19924;-77
2021/01/13 03:19:56;;;;;;;;;;;9.00;83.40;;;;;;5118761;28;19924;-79
2021/01/13 03:22:27;;;;;;;;;;;9.00;83.30;;;;;;5119693;28;19932;-79
2021/01/13 03:25:12;;;;;;;;;;;9.00;83.20;;;;;;5118977;28;20031;-79
2021/01/13 03:27:42;;;;;;;;;;;9.10;83.80;;;;;;5119075;28;19931;-79
2021/01/13 03:30:09;;;;;;;;;;;9.00;82.90;;;;;;5134636;28;19928;-76
2021/01/13 03:32:41;;;;;;;;;;;9.10;82.50;;;;;;5123138;28;19924;-74
2021/01/13 03:35:12;;;;;;;;;;;9.30;81.70;;;;;;5140650;28;19923;-73
2021/01/13 03:37:54;;;;;;;;;;;9.30;81.30;;;;;;5140937;28;19915;-74
2021/01/13 03:40:21;;;;;;;;;;;9.30;81.20;;;;;;5138555;28;19954;-73
2021/01/13 03:42:52;;;;;;;;;;;9.40;81.90;;;;;;5139042;28;19938;-73
2021/01/13 03:45:37;;;;;;;;;;;9.30;81.90;;;;;;5139679;28;19934;-73
2021/01/13 03:48:17;;;;;;;;;;;9.30;82.10;;;;;;5139581;28;19927;-74
2021/01/13 03:50:44;;;;;;;;;;;9.30;81.90;;;;;;5139602;28;19962;-73
2021/01/13 03:53:12;;;;;;;;;;;9.40;81.90;;;;;;5121267;28;19938;-73
2021/01/13 03:55:39;;;;;;;;;;;9.10;83.00;;;;;;5139890;28;19919;-73
2021/01/13 03:58:05;;;;;;;;;;;9.10;83.60;;;;;;5140458;28;19938;-73
2021/01/13 04:00:40;;;;;;;;;;;9.20;83.30;;;;;;5140114;28;19915;-72
2021/01/13 04:03:18;;;;;;;;;;;9.20;82.90;;;;;;5122648;28;19967;-73
2021/01/13 04:06:01;;;;;;;;;;;9.20;83.80;;;;;;5122987;28;19908;-72
2021/01/13 04:08:32;;;;;;;;;;;9.30;83.00;;;;;;5140369;28;20069;-73
2021/01/13 04:10:59;;;;;;;;;;;9.20;83.90;;;;;;5139994;28;19924;-75
2021/01/13 04:13:38;;;;;;;;;;;9.10;84.70;;;;;;5139705;28;19966;-73
2021/01/13 04:16:04;;;;;;;;;;;9.10;85.00;;;;;;5140261;28;19929;-73
2021/01/13 04:18:30;;;;;;;;;;;9.20;84.40;;;;;;5139864;28;19924;-74
2021/01/13 04:20:57;;;;;;;;;;;9.30;84.10;;;;;;5139037;28;19928;-73
2021/01/13 04:23:23;;;;;;;;;;;9.30;84.00;;;;;;5124076;28;19946;-72
2021/01/13 04:25:49;;;;;;;;;;;9.40;84.00;;;;;;5121488;28;19963;-72
2021/01/13 04:28:16;;;;;;;;;;;9.40;84.00;;;;;;5120216;28;20433;-73
2021/01/13 04:30:42;;;;;;;;;;;9.50;84.00;;;;;;5118649;28;19923;-73
2021/01/13 04:33:09;;;;;;;;;;;9.40;83.90;;;;;;5119431;28;20010;-72
2021/01/13 04:35:35;;;;;;;;;;;9.50;83.80;;;;;;5119587;28;19928;-73
2021/01/13 04:38:02;;;;;;;;;;;9.50;84.20;;;;;;5122962;28;20378;-73
2021/01/13 04:40:28;;;;;;;;;;;9.40;84.10;;;;;;5118737;28;19912;-74
2021/01/13 04:42:58;;;;;;;;;;;9.50;85.30;;;;;;5120159;28;19908;-74
2021/01/13 04:45:34;;;;;;;;;;;9.50;84.30;;;;;;5138443;28;19907;-73
2021/01/13 04:48:03;;;;;;;;;;;9.50;84.20;;;;;;5121267;28;19908;-74
2021/01/13 04:50:32;;;;;;;;;;;9.60;84.50;;;;;;5120980;28;19923;-74
2021/01/13 04:52:59;;;;;;;;;;;9.60;84.20;;;;;;5131539;28;19924;-73
2021/01/13 04:55:26;;;;;;;;;;;9.60;84.50;;;;;;5104566;28;20007;-73
2021/01/13 04:58:11;;;;;;;;;;;9.60;85.20;;;;;;5123342;28;19924;-73
2021/01/13 05:00:45;;;;;;;;;;;9.40;86.30;;;;;;5136357;28;19924;-73
2021/01/13 05:03:36;;;;;;;;;;;9.40;87.10;;;;;;5137240;28;19924;-73
2021/01/13 05:06:09;;;;;;;;;;;9.40;86.80;;;;;;5138373;28;19909;-75
2021/01/13 05:08:39;;;;;;;;;;;9.30;87.40;;;;;;5138593;28;19924;-73
2021/01/13 05:11:12;;;;;;;;;;;9.40;87.20;;;;;;5138722;28;19916;-73
2021/01/13 05:13:40;;;;;;;;;;;9.40;87.10;;;;;;5138576;28;19907;-74
2021/01/13 05:16:12;;;;;;;;;;;9.50;86.50;;;;;;5136845;28;19928;-73
2021/01/13 05:18:45;;;;;;;;;;;9.40;86.70;;;;;;5138815;28;19940;-72
2021/01/13 05:21:15;;;;;;;;;;;9.30;87.50;;;;;;5138115;28;19931;-73
2021/01/13 05:23:44;;;;;;;;;;;9.30;87.30;;;;;;5138644;28;19907;-81
2021/01/13 05:26:15;;;;;;;;;;;9.30;88.10;;;;;;5138949;28;19928;-76
2021/01/13 05:28:53;;;;;;;;;;;9.40;88.10;;;;;;5120290;28;19912;-74
2021/01/13 05:31:23;;;;;;;;;;;9.40;87.40;;;;;;5138581;28;19908;-73
2021/01/13 05:33:53;;;;;;;;;;;9.30;88.90;;;;;;5140856;28;19907;-73
2021/01/13 05:36:20;;;;;;;;;;;9.40;88.90;;;;;;5143108;27;19907;-73
2021/01/13 05:38:59;;;;;;;;;;;9.30;88.50;;;;;;5141932;28;19931;-75
2021/01/13 05:41:26;;;;;;;;;;;9.40;88.00;;;;;;5141864;28;19912;-76
2021/01/13 05:43:52;;;;;;;;;;;9.30;88.60;;;;;;5141625;28;19908;-74
2021/01/13 05:46:19;;;;;;;;;;;9.40;88.80;;;;;;5141435;28;19924;-75
2021/01/13 05:48:49;;;;;;;;;;;9.40;87.70;;;;;;5141437;28;19908;-74
2021/01/13 05:51:28;;;;;;;;;;;9.30;87.90;;;;;;5124019;28;19983;-75
2021/01/13 05:53:54;;;;;;;;;;;9.40;87.70;;;;;;5124945;28;19908;-73
2021/01/13 05:56:21;;;;;;;;;;;9.50;87.70;;;;;;5141975;28;19912;-73
2021/01/13 05:58:59;;;;;;;;;;;9.50;88.00;;;;;;5140479;28;19953;-80
2021/01/13 06:01:35;;;;;;;;;;;9.50;87.30;;;;;;5140574;28;19939;-74
2021/01/13 06:04:05;;;;;;;;;;;9.30;87.50;;;;;;5141100;28;19908;-76
2021/01/13 06:06:34;;;;;;;;;;;9.30;87.90;;;;;;5140935;28;19950;-77
2021/01/13 06:09:01;;;;;;;;;;;9.40;87.70;;;;;;5119851;28;19924;-76
2021/01/13 06:11:42;;;;;;;;;;;9.40;87.10;;;;;;5134980;28;19935;-74
2021/01/13 06:14:09;;;;;;;;;;;9.20;87.50;;;;;;5135702;28;20413;-74
2021/01/13 06:16:35;;;;;;;;;;;9.20;87.30;;;;;;5133512;28;19959;-77
2021/01/13 06:19:02;;;;;;;;;;;9.10;87.40;;;;;;5132735;28;19924;-76
2021/01/13 06:21:28;;;;;;;;;;;9.20;87.30;;;;;;5132707;28;19935;-77
2021/01/13 06:23:54;;;;;;;;;;;9.20;87.10;;;;;;5130346;28;19963;-73
2021/01/13 06:26:21;;;;;;;;;;;9.30;87.00;;;;;;5125741;28;19931;-73
2021/01/13 06:29:00;;;;;;;;;;;9.20;87.10;;;;;;5124312;28;19932;-72
2021/01/13 06:31:27;;;;;;;;;;;9.30;87.10;;;;;;5125947;28;19924;-75
2021/01/13 06:33:53;;;;;;;;;;;9.20;87.50;;;;;;5124568;28;19924;-74
2021/01/13 06:36:23;;;;;;;;;;;9.10;88.40;;;;;;5122167;28;19979;-75
2021/01/13 06:38:59;;;;;;;;;;;9.00;88.90;;;;;;5119279;28;20018;-72
2021/01/13 06:41:25;;;;;;;;;;;9.00;89.00;;;;;;5122320;28;20010;-73
2021/01/13 06:43:55;;;;;;;;;;;9.10;89.00;;;;;;5100612;28;19923;-71
2021/01/13 06:46:22;;;;;;;;;;;9.20;88.60;;;;;;5098326;28;20441;-71
2021/01/13 06:48:48;;;;;;;;;;;9.00;88.90;;;;;;5117033;28;19935;-71
2021/01/13 06:51:15;;;;;;;;;;;9.10;88.80;;;;;;5110781;28;20310;-76
2021/01/13 06:53:47;;;;;;;;;;;9.20;88.10;;;;;;5130646;28;20028;-73
2021/01/13 06:56:14;;;;;;;;;;;9.30;88.50;;;;;;5126420;28;19927;-78
2021/01/13 06:58:57;;;;;;;;;;;9.30;87.90;;;;;;5098210;28;19963;-76
2021/01/13 07:01:23;;;;;;;;;;;9.40;87.50;;;;;;5116877;28;19924;-77
2021/01/13 07:03:57;;;;;;;;;;;9.40;87.00;;;;;;5118174;28;20014;-74
2021/01/13 07:06:23;;;;;;;;;;;9.40;87.70;;;;;;5117300;28;20007;-74
2021/01/13 07:08:50;;;;;;;;;;;9.60;87.40;;;;;;5119470;28;20426;-79
2021/01/13 07:11:19;;;;;;;;;;;9.40;87.30;;;;;;5119709;28;19946;-74
2021/01/13 07:13:53;;;;;;;;;;;9.40;88.20;;;;;;5122843;28;19959;-73
2021/01/13 07:16:26;;;;;;;;;;;9.50;87.20;;;;;;5103939;28;19969;-74
2021/01/13 07:18:56;;;;;;;;;;;9.50;87.10;;;;;;5124077;28;19930;-74
2021/01/13 07:21:34;;;;;;;;;;;9.60;87.00;;;;;;5109963;28;19923;-77
2021/01/13 07:24:01;;;;;;;;;;;9.50;87.20;;;;;;5126746;28;20348;-74
2021/01/13 07:26:27;;;;;;;;;;;9.50;87.50;;;;;;5131176;28;19935;-74
2021/01/13 07:28:54;;;;;;;;;;;9.50;86.90;;;;;;5135842;28;19966;-74
2021/01/13 07:31:28;;;;;;;;;;;9.50;86.70;;;;;;5135115;28;19923;-75
2021/01/13 07:33:57;;;;;;;;;;;9.60;87.40;;;;;;5118715;28;20367;-74
2021/01/13 07:36:26;;;;;;;;;;;9.50;87.20;;;;;;5118345;28;19937;-74
2021/01/13 07:38:55;;;;;;;;;;;9.60;86.90;;;;;;5118217;28;19928;-74
2021/01/13 07:41:44;;;;;;;;;;;9.50;87.20;;;;;;5123528;28;19924;-74
2021/01/13 07:44:19;;;;;;;;;;;9.50;87.60;;;;;;5130214;28;19924;-73
2021/01/13 07:46:59;;;;;;;;;;;9.60;87.50;;;;;;5110840;28;19959;-73
2021/01/13 07:49:38;;;;;;;;;;;9.70;87.80;;;;;;5128598;28;19930;-73
2021/01/13 07:52:07;;;;;;;;;;;9.80;87.40;;;;;;5124202;28;19959;-73
2021/01/13 07:54:34;;;;;;;;;;;9.90;86.90;;;;;;5128129;28;19924;-73
2021/01/13 07:57:03;;;;;;;;;;;9.90;86.60;;;;;;5112649;28;19927;-76
2021/01/13 07:59:29;;;;;;;;;;;9.80;87.10;;;;;;5131713;28;20000;-73
2021/01/13 08:02:17;;;;;;;;;;;9.90;87.40;;;;;;5132518;28;19986;-73
2021/01/13 08:04:47;;;;;;;;;;;9.90;86.70;;;;;;5130202;28;19928;-73
2021/01/13 08:07:16;;;;;;;;;;;9.80;87.70;;;;;;5133282;28;19924;-74
2021/01/13 08:09:49;;;;;;;;;;;9.90;88.30;;;;;;5130411;28;19977;-73
2021/01/13 08:12:28;;;;;;;;;;;9.90;87.90;;;;;;5132449;28;19928;-72
2021/01/13 08:15:04;;;;;;;;;;;10.00;88.00;;;;;;5132666;28;20015;-73
2021/01/13 08:17:39;;;;;;;;;;;10.00;87.80;;;;;;5131860;28;19958;-74
2021/01/13 08:20:12;;;;;;;;;;;10.10;88.70;;;;;;5113240;28;19991;-73
2021/01/13 08:22:39;;;;;;;;;;;10.10;88.70;;;;;;5117410;28;19971;-74
2021/01/13 08:25:18;;;;;;;;;;;10.00;88.20;;;;;;5134860;28;19943;-79
2021/01/13 08:27:54;;;;;;;;;;;9.70;89.60;;;;;;5137613;28;19908;-74
2021/01/13 08:30:25;;;;;;;;;;;9.60;90.20;;;;;;5133250;28;19928;-74
2021/01/13 08:32:54;;;;;;;;;;;9.70;90.40;;;;;;5131760;28;20012;-76
2021/01/13 08:35:31;;;;;;;;;;;9.70;90.50;;;;;;5108877;28;19973;-72
2021/01/13 08:38:04;;;;;;;;;;;9.60;90.40;;;;;;5121421;28;19923;-72
2021/01/13 08:40:30;;;;;;;;;;;9.60;90.80;;;;;;5115043;28;19959;-72
2021/01/13 08:43:05;;;;;;;;;;;9.70;90.60;;;;;;5115557;28;19932;-73
2021/01/13 08:45:33;;;;;;;;;;;9.70;90.60;;;;;;5115430;28;19949;-72
2021/01/13 08:48:10;;;;;;;;;;;9.80;90.50;;;;;;5114157;28;19924;-71
2021/01/13 08:50:37;;;;;;;;;;;9.80;90.50;;;;;;5113378;28;19963;-72
2021/01/13 08:53:04;;;;;;;;;;;9.90;90.10;;;;;;5113895;28;19977;-72
2021/01/13 08:55:30;;;;;;;;;;;9.90;90.30;;;;;;5096485;28;20018;-72
2021/01/13 08:58:03;;;;;;;;;;;10.00;90.50;;;;;;5115627;28;20334;-72
2021/01/13 09:00:29;;;;;;;;;;;10.10;90.40;;;;;;5115043;28;20018;-72
2021/01/13 09:03:06;;;;;;;;;;;10.10;90.50;;;;;;5119234;28;19958;-73
2021/01/13 09:05:35;;;;;;;;;;;10.00;91.30;;;;;;5125704;28;19924;-72
2021/01/13 09:08:06;;;;;;;;;;;9.90;90.70;;;;;;5109229;28;19931;-72
2021/01/13 09:10:52;;;;;;;;;;;9.90;91.40;;;;;;5118199;28;19928;-73
2021/01/13 09:13:32;;;;;;;;;;;9.80;91.20;;;;;;5098084;28;19963;-76
2021/01/13 09:16:18;;;;;;;;;;;9.80;92.10;;;;;;5114884;28;20022;-72
2021/01/13 09:19:01;;;;;;;;;;;9.70;92.70;;;;;;5098326;28;19950;-72
2021/01/13 09:21:34;;;;;;;;;;;9.60;92.80;;;;;;5097469;28;20014;-72
2021/01/13 09:24:01;;;;;;;;;;;9.70;92.90;;;;;;5114702;28;20384;-73
2021/01/13 09:26:29;;;;;;;;;;;9.80;92.80;;;;;;5114197;28;19935;-71
2021/01/13 09:28:59;;;;;;;;;;;9.90;93.30;;;;;;5097682;28;19963;-73
2021/01/13 09:31:25;;;;;;;;;;;10.00;93.00;;;;;;5099602;28;20006;-76
2021/01/13 09:33:52;;;;;;;;;;;10.10;93.70;;;;;;5119449;28;19924;-73
2021/01/13 09:36:20;;;;;;;;;;;9.90;92.50;;;;;;5103882;28;19988;-73
2021/01/13 09:38:48;;;;;;;;;;;10.00;93.60;;;;;;5123096;28;19966;-73
2021/01/13 09:41:26;;;;;;;;;;;9.90;93.10;;;;;;5109443;28;19924;-73
2021/01/13 09:44:08;;;;;;;;;;;9.80;93.40;;;;;;5123942;28;19931;-74
2021/01/13 09:46:34;;;;;;;;;;;9.80;93.40;;;;;;5108021;28;20405;-73
2021/01/13 09:49:02;;;;;;;;;;;9.80;93.90;;;;;;5111975;28;19942;-74
2021/01/13 09:51:29;;;;;;;;;;;9.70;93.70;;;;;;5128854;28;19927;-73
2021/01/13 09:53:57;;;;;;;;;;;9.90;94.80;;;;;;5127585;28;19930;-73
2021/01/13 09:56:27;;;;;;;;;;;10.00;95.00;;;;;;5102723;28;19924;-73
2021/01/13 09:58:54;;;;;;;;;;;9.90;93.80;;;;;;5116402;28;19955;-73
2021/01/13 10:01:27;;;;;;;;;;;9.80;93.30;;;;;;5097217;28;19988;-73
2021/01/13 10:03:55;;;;;;;;;;;9.80;94.00;;;;;;5115445;28;20425;-73
2021/01/13 10:06:23;;;;;;;;;;;9.80;94.30;;;;;;5096514;28;19923;-73
2021/01/13 10:09:12;;;;;;;;;;;9.90;94.20;;;;;;5117085;28;19978;-73
2021/01/13 10:11:38;;;;;;;;;;;10.00;94.00;;;;;;5117244;28;20304;-73
2021/01/13 10:14:18;;;;;;;;;;;10.10;94.40;;;;;;5120217;28;19945;-74
2021/01/13 10:16:46;;;;;;;;;;;10.10;93.80;;;;;;5118956;28;19924;-73
2021/01/13 10:19:13;;;;;;;;;;;10.10;93.50;;;;;;5126364;28;20022;-74
2021/01/13 10:21:41;;;;;;;;;;;10.30;93.90;;;;;;5133595;28;19930;-75
2021/01/13 10:24:09;;;;;;;;;;;10.40;93.60;;;;;;5132365;28;19924;-74
2021/01/13 10:26:39;;;;;;;;;;;10.40;92.90;;;;;;5122354;28;20444;-74
2021/01/13 10:29:09;;;;;;;;;;;10.30;93.90;;;;;;5121187;28;20287;-73
2021/01/13 10:31:38;;;;;;;;;;;10.40;93.70;;;;;;5123418;28;19975;-74
2021/01/13 10:34:05;;;;;;;;;;;10.60;92.80;;;;;;5134248;28;19908;-74
2021/01/13 10:36:33;;;;;;;;;;;10.30;93.50;;;;;;5120992;28;19908;-73
2021/01/13 10:39:02;;;;;;;;;;;10.40;93.60;;;;;;5141010;28;19930;-75
2021/01/13 10:41:28;;;;;;;;;;;10.40;94.10;;;;;;5120964;28;19920;-73
2021/01/13 10:44:06;;;;;;;;;;;10.40;93.10;;;;;;5121956;28;19914;-73
2021/01/13 10:46:45;;;;;;;;;;;10.30;93.20;;;;;;5129846;28;19963;-73
2021/01/13 10:49:25;;;;;;;;;;;10.30;94.20;;;;;;5121736;28;20347;-73
2021/01/13 10:51:53;;;;;;;;;;;10.40;93.80;;;;;;5120203;28;20414;-73
2021/01/13 10:54:23;;;;;;;;;;;10.60;94.30;;;;;;5133991;28;19925;-74
2021/01/13 10:56:54;;;;;;;;;;;10.90;93.10;;;;;;5137042;28;19959;-74
2021/01/13 10:59:20;;;;;;;;;;;11.00;92.80;;;;;;5137956;28;19927;-73
2021/01/13 11:01:48;;;;;;;;;;;11.10;91.70;;;;;;5136480;28;19908;-73
2021/01/13 11:04:57;;;;;;;;;;;11.20;92.40;;;;;;5093374;28;20047;-73
2021/01/13 11:07:23;;;;;;;;;;;11.30;91.70;;;;;;5092501;28;19924;-73
2021/01/13 11:09:55;;;;;;;;;;;11.50;91.60;;;;;;5094346;28;19925;-74
2021/01/13 11:12:29;;;;;;;;;;;11.20;91.60;;;;;;5077210;28;19924;-74
2021/01/13 11:14:57;;;;;;;;;;;11.10;92.00;;;;;;5093296;28;19955;-73
2021/01/13 11:17:24;;;;;;;;;;;11.30;91.90;;;;;;5092423;28;19924;-73
2021/01/13 11:20:06;;;;;;;;;;;11.40;91.10;;;;;;5091470;28;19924;-73
2021/01/13 11:22:45;;;;;;;;;;;11.50;91.00;;;;;;5092146;28;19975;-74
2021/01/13 11:25:20;;;;;;;;;;;11.40;91.10;;;;;;5089575;28;19935;-74
2021/01/13 11:27:59;;;;;;;;;;;11.30;91.30;;;;;;5088319;28;19947;-73
2021/01/13 11:30:28;;;;;;;;;;;11.60;91.00;;;;;;5087514;28;19932;-74
2021/01/13 11:32:56;;;;;;;;;;;12.00;90.60;;;;;;5071502;28;19954;-74
2021/01/13 11:35:33;;;;;;;;;;;11.90;90.20;;;;;;5102990;28;19955;-74
2021/01/13 11:38:05;;;;;;;;;;;12.10;90.10;;;;;;5115810;28;19928;-74
2021/01/13 11:40:36;;;;;;;;;;;12.30;89.70;;;;;;5115662;28;19924;-73
2021/01/13 11:43:08;;;;;;;;;;;12.40;88.80;;;;;;5099073;28;19925;-74
2021/01/13 11:45:53;;;;;;;;;;;12.60;88.00;;;;;;5099492;28;19930;-74
2021/01/13 11:48:24;;;;;;;;;;;12.50;87.90;;;;;;5117872;28;19924;-74
2021/01/13 11:50:58;;;;;;;;;;;12.40;88.40;;;;;;5115026;28;19979;-74
2021/01/13 11:53:29;;;;;;;;;;;12.30;89.10;;;;;;5090117;28;19947;-74
2021/01/13 11:56:47;;;;;;;;;;;12.00;90.00;;;;;;5115595;28;19930;-74
2021/01/13 11:59:22;;;;;;;;;;;12.00;90.30;;;;;;5115329;28;19924;-73
2021/01/13 12:01:57;;;;;;;;;;;12.10;90.40;;;;;;5116428;28;19920;-74
2021/01/13 12:04:27;;;;;;;;;;;12.10;90.70;;;;;;5115562;28;19924;-74
2021/01/13 12:07:02;;;;;;;;;;;12.00;90.70;;;;;;5113905;28;19928;-73
2021/01/13 12:09:29;;;;;;;;;;;11.90;91.00;;;;;;5109881;28;19967;-73
2021/01/13 12:11:55;;;;;;;;;;;12.00;91.00;;;;;;5111636;28;19924;-73
2021/01/13 12:14:42;;;;;;;;;;;11.80;91.20;;;;;;5109174;28;19932;-73
2021/01/13 12:17:10;;;;;;;;;;;11.90;91.00;;;;;;5115522;28;19976;-74
2021/01/13 12:19:40;;;;;;;;;;;11.90;91.30;;;;;;5085985;28;19924;-79
2021/01/13 12:22:06;;;;;;;;;;;12.00;91.00;;;;;;5102032;28;19947;-75
2021/01/13 12:24:42;;;;;;;;;;;11.90;90.80;;;;;;5091615;28;19924;-73
2021/01/13 12:27:35;;;;;;;;;;;11.90;90.70;;;;;;5110988;28;19935;-76
2021/01/13 12:30:11;;;;;;;;;;;12.00;90.60;;;;;;5107871;28;19928;-74
2021/01/13 12:32:39;;;;;;;;;;;12.00;90.60;;;;;;5112050;28;19908;-73
2021/01/13 12:35:06;;;;;;;;;;;11.90;90.30;;;;;;5109756;28;19931;-74
2021/01/13 12:37:43;;;;;;;;;;;12.00;90.40;;;;;;5109878;28;19912;-77
2021/01/13 12:40:10;;;;;;;;;;;12.10;90.00;;;;;;5114198;28;19925;-75
2021/01/13 12:42:37;;;;;;;;;;;12.10;90.00;;;;;;5117167;28;19923;-74
2021/01/13 12:45:03;;;;;;;;;;;12.20;89.50;;;;;;5118077;28;19915;-75
2021/01/13 12:47:30;;;;;;;;;;;12.00;89.70;;;;;;5117572;28;19908;-74
2021/01/13 12:49:56;;;;;;;;;;;12.10;89.00;;;;;;5099115;28;19912;-74
2021/01/13 12:52:22;;;;;;;;;;;12.10;89.00;;;;;;5154921;27;19908;-73
2021/01/13 12:54:48;;;;;;;;;;;12.10;89.30;;;;;;5158506;27;19949;-73
2021/01/13 12:57:18;;;;;;;;;;;12.10;88.80;;;;;;5140236;27;19924;-74
2021/01/13 12:59:49;;;;;;;;;;;12.20;89.40;;;;;;5158120;27;19907;-76
2021/01/13 13:02:15;;;;;;;;;;;12.20;89.50;;;;;;5142131;27;19919;-79
2021/01/13 13:05:11;;;;;;;;;;;12.20;89.90;;;;;;5159254;27;20356;-74
2021/01/13 13:07:43;;;;;;;;;;;12.00;90.00;;;;;;5155064;27;19991;-74
2021/01/13 13:10:10;;;;;;;;;;;12.00;90.00;;;;;;5140429;27;20010;-75
2021/01/13 13:12:36;;;;;;;;;;;12.20;89.80;;;;;;5157435;27;19908;-74
2021/01/13 13:15:03;;;;;;;;;;;12.30;89.70;;;;;;5157856;27;19912;-74
2021/01/13 13:17:59;;;;;;;;;;;12.10;89.90;;;;;;5157651;27;19908;-75
2021/01/13 13:20:25;;;;;;;;;;;12.10;89.90;;;;;;5141789;27;19911;-74
2021/01/13 13:22:51;;;;;;;;;;;12.10;89.50;;;;;;5159496;27;19916;-74
2021/01/13 13:25:17;;;;;;;;;;;12.20;89.50;;;;;;5159156;27;19924;-76
2021/01/13 13:27:44;;;;;;;;;;;12.20;89.40;;;;;;5160000;27;19970;-73
2021/01/13 13:30:10;;;;;;;;;;;12.20;89.20;;;;;;5160107;27;20038;-74
2021/01/13 13:32:38;;;;;;;;;;;12.20;89.00;;;;;;5141984;28;19912;-74
2021/01/13 13:35:28;;;;;;;;;;;12.20;88.60;;;;;;5157976;27;19923;-73
2021/01/13 13:37:55;;;;;;;;;;;12.00;89.20;;;;;;5158945;27;19929;-74
2021/01/13 13:40:22;;;;;;;;;;;12.00;89.80;;;;;;5158838;27;19943;-74
2021/01/13 13:42:49;;;;;;;;;;;12.00;89.10;;;;;;5157784;27;19956;-74
2021/01/13 13:45:33;;;;;;;;;;;12.10;89.00;;;;;;5158742;27;19937;-75
2021/01/13 13:48:19;;;;;;;;;;;12.20;88.60;;;;;;5140028;28;19931;-73
2021/01/13 13:51:17;;;;;;;;;;;12.10;88.50;;;;;;5068596;28;19915;-73
2021/01/13 13:53:50;;;;;;;;;;;12.20;87.60;;;;;;5055158;28;19913;-74
2021/01/13 13:56:37;;;;;;;;;;;12.20;87.70;;;;;;5055510;28;19944;-75
2021/01/13 13:59:07;;;;;;;;;;;12.10;88.10;;;;;;5048672;28;19932;-73
2021/01/13 14:01:33;;;;;;;;;;;12.10;87.50;;;;;;5051182;28;19925;-73
2021/01/13 14:03:59;;;;;;;;;;;12.10;87.70;;;;;;5050580;28;19925;-75
2021/01/13 14:06:26;;;;;;;;;;;12.10;87.60;;;;;;5049109;28;19989;-73
2021/01/13 14:08:53;;;;;;;;;;;12.20;87.60;;;;;;5031832;28;20368;-73
2021/01/13 14:11:28;;;;;;;;;;;12.20;88.00;;;;;;5045900;28;19909;-72
2021/01/13 14:13:54;;;;;;;;;;;12.10;88.90;;;;;;5026022;28;19959;-73
2021/01/13 14:16:26;;;;;;;;;;;12.00;89.60;;;;;;5042327;28;19929;-73
2021/01/13 14:18:53;;;;;;;;;;;12.00;90.40;;;;;;5040547;28;19932;-73
2021/01/13 14:21:19;;;;;;;;;;;12.00;90.60;;;;;;5039498;28;19929;-73
2021/01/13 14:23:49;;;;;;;;;;;11.80;90.30;;;;;;5050933;28;19936;-74
2021/01/13 14:26:18;;;;;;;;;;;11.80;90.80;;;;;;5057649;28;19944;-72
2021/01/13 14:28:45;;;;;;;;;;;11.90;90.80;;;;;;5077912;28;19916;-73
2021/01/13 14:31:12;;;;;;;;;;;11.80;90.90;;;;;;5076458;28;19925;-73
2021/01/13 14:33:38;;;;;;;;;;;11.80;91.00;;;;;;5097081;28;19946;-74
2021/01/13 14:36:05;;;;;;;;;;;11.90;91.50;;;;;;5080502;28;19921;-73
2021/01/13 14:38:31;;;;;;;;;;;11.80;91.40;;;;;;5097392;28;19912;-73
2021/01/13 14:40:58;;;;;;;;;;;11.70;91.10;;;;;;5097895;28;19925;-74
2021/01/13 14:43:24;;;;;;;;;;;11.80;91.60;;;;;;5098932;28;19946;-73
2021/01/13 14:45:50;;;;;;;;;;;11.80;91.30;;;;;;5098466;28;19908;-73
2021/01/13 14:48:16;;;;;;;;;;;11.80;91.30;;;;;;5132864;28;20395;-74